sensor_id;sensor_type;location;lat;lon;timestamp;P1;durP1;ratioP1;P2;durP2;ratioP2
32096;SDS011;18610;49.916;8.284;2023-02-15T00:00:29;81.07;;;35.50;;
32096;SDS011;18610;49.916;8.284;2023-02-15T00:02:57;85.22;;;36.90;;
32096;SDS011;18610;49.916;8.284;2023-02-15T00:05:23;96.82;;;38.45;;
32096;SDS011;18610;49.916;8.284;2023-02-15T00:07:50;85.68;;;37.50;;
32096;SDS011;18610;49.916;8.284;2023-02-15T00:10:17;92.28;;;38.45;;
32096;SDS011;18610;49.916;8.284;2023-02-15T00:12:43;86.85;;;37.60;;
32096;SDS011;18610;49.916;8.284;2023-02-15T00:15:10;85.97;;;35.80;;
32096;SDS011;18610;49.916;8.284;2023-02-15T00:17:38;90.05;;;38.50;;
32096;SDS011;18610;49.916;8.284;2023-02-15T00:20:06;84.53;;;37.10;;
32096;SDS011;18610;49.916;8.284;2023-02-15T00:22:34;86.30;;;37.67;;
32096;SDS011;18610;49.916;8.284;2023-02-15T00:25:03;85.70;;;37.83;;
32096;SDS011;18610;49.916;8.284;2023-02-15T00:27:30;89.45;;;38.33;;
32096;SDS011;18610;49.916;8.284;2023-02-15T00:29:59;88.28;;;39.00;;
32096;SDS011;18610;49.916;8.284;2023-02-15T00:32:25;81.13;;;36.30;;
32096;SDS011;18610;49.916;8.284;2023-02-15T00:34:56;86.97;;;34.67;;
32096;SDS011;18610;49.916;8.284;2023-02-15T00:37:24;86.50;;;38.70;;
32096;SDS011;18610;49.916;8.284;2023-02-15T00:39:51;92.05;;;40.03;;
32096;SDS011;18610;49.916;8.284;2023-02-15T00:42:18;90.20;;;37.00;;
32096;SDS011;18610;49.916;8.284;2023-02-15T00:44:44;83.80;;;34.88;;
32096;SDS011;18610;49.916;8.284;2023-02-15T00:47:11;82.95;;;36.55;;
32096;SDS011;18610;49.916;8.284;2023-02-15T00:49:38;96.97;;;38.58;;
32096;SDS011;18610;49.916;8.284;2023-02-15T00:52:05;93.95;;;38.72;;
32096;SDS011;18610;49.916;8.284;2023-02-15T00:54:33;88.57;;;37.20;;
32096;SDS011;18610;49.916;8.284;2023-02-15T00:57:00;82.68;;;35.83;;
32096;SDS011;18610;49.916;8.284;2023-02-15T00:59:27;77.90;;;36.42;;
32096;SDS011;18610;49.916;8.284;2023-02-15T01:01:54;82.50;;;35.88;;
32096;SDS011;18610;49.916;8.284;2023-02-15T01:04:20;82.45;;;37.00;;
32096;SDS011;18610;49.916;8.284;2023-02-15T01:06:47;81.18;;;35.72;;
32096;SDS011;18610;49.916;8.284;2023-02-15T01:09:14;88.47;;;37.03;;
32096;SDS011;18610;49.916;8.284;2023-02-15T01:11:42;87.60;;;37.95;;
32096;SDS011;18610;49.916;8.284;2023-02-15T01:14:08;84.13;;;37.20;;
32096;SDS011;18610;49.916;8.284;2023-02-15T01:16:35;84.38;;;36.20;;
32096;SDS011;18610;49.916;8.284;2023-02-15T01:19:03;87.00;;;37.65;;
32096;SDS011;18610;49.916;8.284;2023-02-15T01:21:29;83.38;;;38.05;;
32096;SDS011;18610;49.916;8.284;2023-02-15T01:23:59;86.45;;;36.75;;
32096;SDS011;18610;49.916;8.284;2023-02-15T01:26:26;83.55;;;37.83;;
32096;SDS011;18610;49.916;8.284;2023-02-15T01:28:54;92.43;;;38.63;;
32096;SDS011;18610;49.916;8.284;2023-02-15T01:31:20;95.88;;;40.20;;
32096;SDS011;18610;49.916;8.284;2023-02-15T01:33:48;88.88;;;37.50;;
32096;SDS011;18610;49.916;8.284;2023-02-15T01:36:15;85.93;;;36.53;;
32096;SDS011;18610;49.916;8.284;2023-02-15T01:38:42;80.55;;;35.65;;
32096;SDS011;18610;49.916;8.284;2023-02-15T01:41:09;86.72;;;37.17;;
32096;SDS011;18610;49.916;8.284;2023-02-15T01:43:54;85.10;;;35.75;;
32096;SDS011;18610;49.916;8.284;2023-02-15T01:46:24;88.22;;;36.92;;
32096;SDS011;18610;49.916;8.284;2023-02-15T01:48:55;89.57;;;38.95;;
32096;SDS011;18610;49.916;8.284;2023-02-15T01:51:27;84.38;;;37.38;;
32096;SDS011;18610;49.916;8.284;2023-02-15T01:53:57;88.78;;;38.10;;
32096;SDS011;18610;49.916;8.284;2023-02-15T01:56:28;82.55;;;35.97;;
32096;SDS011;18610;49.916;8.284;2023-02-15T01:59:01;85.20;;;36.40;;
32096;SDS011;18610;49.916;8.284;2023-02-15T02:01:31;88.22;;;37.88;;
32096;SDS011;18610;49.916;8.284;2023-02-15T02:03:59;83.40;;;36.55;;
32096;SDS011;18610;49.916;8.284;2023-02-15T02:06:30;83.15;;;37.28;;
32096;SDS011;18610;49.916;8.284;2023-02-15T02:08:59;81.35;;;36.30;;
32096;SDS011;18610;49.916;8.284;2023-02-15T02:11:26;84.28;;;34.65;;
32096;SDS011;18610;49.916;8.284;2023-02-15T02:13:53;77.65;;;34.78;;
32096;SDS011;18610;49.916;8.284;2023-02-15T02:16:23;86.30;;;34.70;;
32096;SDS011;18610;49.916;8.284;2023-02-15T02:18:58;79.22;;;35.13;;
32096;SDS011;18610;49.916;8.284;2023-02-15T02:27:50;77.57;;;33.53;;
32096;SDS011;18610;49.916;8.284;2023-02-15T02:30:34;78.05;;;34.53;;
32096;SDS011;18610;49.916;8.284;2023-02-15T02:33:18;82.15;;;35.53;;
32096;SDS011;18610;49.916;8.284;2023-02-15T02:35:56;79.00;;;35.30;;
32096;SDS011;18610;49.916;8.284;2023-02-15T02:38:32;83.90;;;36.20;;
32096;SDS011;18610;49.916;8.284;2023-02-15T02:41:10;78.75;;;34.70;;
32096;SDS011;18610;49.916;8.284;2023-02-15T02:43:47;81.53;;;34.70;;
32096;SDS011;18610;49.916;8.284;2023-02-15T02:46:20;87.07;;;36.80;;
32096;SDS011;18610;49.916;8.284;2023-02-15T02:48:52;79.88;;;35.33;;
32096;SDS011;18610;49.916;8.284;2023-02-15T02:51:19;77.97;;;34.90;;
32096;SDS011;18610;49.916;8.284;2023-02-15T02:53:48;71.75;;;31.25;;
32096;SDS011;18610;49.916;8.284;2023-02-15T02:56:18;78.07;;;33.80;;
32096;SDS011;18610;49.916;8.284;2023-02-15T02:58:51;75.55;;;34.05;;
32096;SDS011;18610;49.916;8.284;2023-02-15T03:01:23;93.82;;;36.97;;
32096;SDS011;18610;49.916;8.284;2023-02-15T03:03:55;83.30;;;35.47;;
32096;SDS011;18610;49.916;8.284;2023-02-15T03:06:27;86.05;;;36.10;;
32096;SDS011;18610;49.916;8.284;2023-02-15T03:09:01;81.82;;;34.90;;
32096;SDS011;18610;49.916;8.284;2023-02-15T03:11:40;86.15;;;35.67;;
32096;SDS011;18610;49.916;8.284;2023-02-15T03:14:08;77.93;;;34.63;;
32096;SDS011;18610;49.916;8.284;2023-02-15T03:16:36;84.53;;;35.58;;
32096;SDS011;18610;49.916;8.284;2023-02-15T03:19:08;84.15;;;35.42;;
32096;SDS011;18610;49.916;8.284;2023-02-15T03:21:38;85.50;;;35.97;;
32096;SDS011;18610;49.916;8.284;2023-02-15T03:24:14;75.68;;;34.53;;
32096;SDS011;18610;49.916;8.284;2023-02-15T03:26:45;84.65;;;35.72;;
32096;SDS011;18610;49.916;8.284;2023-02-15T03:29:15;81.95;;;35.40;;
32096;SDS011;18610;49.916;8.284;2023-02-15T03:31:45;75.18;;;33.75;;
32096;SDS011;18610;49.916;8.284;2023-02-15T03:34:17;79.00;;;34.60;;
32096;SDS011;18610;49.916;8.284;2023-02-15T03:36:44;85.90;;;38.17;;
32096;SDS011;18610;49.916;8.284;2023-02-15T03:39:18;70.97;;;32.15;;
32096;SDS011;18610;49.916;8.284;2023-02-15T03:41:55;71.32;;;30.90;;
32096;SDS011;18610;49.916;8.284;2023-02-15T03:44:26;73.25;;;33.33;;
32096;SDS011;18610;49.916;8.284;2023-02-15T03:46:56;77.88;;;33.22;;
32096;SDS011;18610;49.916;8.284;2023-02-15T03:49:30;77.85;;;33.90;;
32096;SDS011;18610;49.916;8.284;2023-02-15T03:52:03;66.80;;;30.52;;
32096;SDS011;18610;49.916;8.284;2023-02-15T03:54:32;78.22;;;33.30;;
32096;SDS011;18610;49.916;8.284;2023-02-15T03:57:14;68.82;;;30.98;;
32096;SDS011;18610;49.916;8.284;2023-02-15T04:00:02;70.90;;;31.30;;
32096;SDS011;18610;49.916;8.284;2023-02-15T04:03:07;74.00;;;32.10;;
32096;SDS011;18610;49.916;8.284;2023-02-15T04:05:46;76.88;;;33.80;;
32096;SDS011;18610;49.916;8.284;2023-02-15T04:08:13;100.32;;;34.38;;
32096;SDS011;18610;49.916;8.284;2023-02-15T04:10:39;75.97;;;33.25;;
32096;SDS011;18610;49.916;8.284;2023-02-15T04:13:17;68.30;;;32.20;;
32096;SDS011;18610;49.916;8.284;2023-02-15T04:15:45;71.13;;;31.40;;
32096;SDS011;18610;49.916;8.284;2023-02-15T04:18:29;73.00;;;31.15;;
32096;SDS011;18610;49.916;8.284;2023-02-15T04:21:15;64.57;;;29.52;;
32096;SDS011;18610;49.916;8.284;2023-02-15T04:23:59;86.88;;;34.60;;
32096;SDS011;18610;49.916;8.284;2023-02-15T04:26:44;71.38;;;32.33;;
32096;SDS011;18610;49.916;8.284;2023-02-15T04:29:12;71.55;;;31.85;;
32096;SDS011;18610;49.916;8.284;2023-02-15T04:31:39;70.95;;;32.65;;
32096;SDS011;18610;49.916;8.284;2023-02-15T04:34:07;69.18;;;32.03;;
32096;SDS011;18610;49.916;8.284;2023-02-15T04:36:35;74.72;;;33.28;;
32096;SDS011;18610;49.916;8.284;2023-02-15T04:39:02;68.00;;;32.25;;
32096;SDS011;18610;49.916;8.284;2023-02-15T04:41:29;76.72;;;32.35;;
32096;SDS011;18610;49.916;8.284;2023-02-15T04:43:56;67.93;;;31.25;;
32096;SDS011;18610;49.916;8.284;2023-02-15T04:46:22;96.15;;;32.92;;
32096;SDS011;18610;49.916;8.284;2023-02-15T04:48:49;73.22;;;35.50;;
32096;SDS011;18610;49.916;8.284;2023-02-15T04:51:19;73.43;;;34.38;;
32096;SDS011;18610;49.916;8.284;2023-02-15T04:53:47;75.13;;;33.95;;
32096;SDS011;18610;49.916;8.284;2023-02-15T04:56:14;74.22;;;34.60;;
32096;SDS011;18610;49.916;8.284;2023-02-15T04:58:41;70.10;;;32.38;;
32096;SDS011;18610;49.916;8.284;2023-02-15T05:01:08;75.72;;;33.85;;
32096;SDS011;18610;49.916;8.284;2023-02-15T05:03:35;76.55;;;32.17;;
32096;SDS011;18610;49.916;8.284;2023-02-15T05:06:02;73.45;;;32.65;;
32096;SDS011;18610;49.916;8.284;2023-02-15T05:08:29;69.68;;;31.55;;
32096;SDS011;18610;49.916;8.284;2023-02-15T05:10:57;67.68;;;30.05;;
32096;SDS011;18610;49.916;8.284;2023-02-15T05:13:24;72.05;;;31.50;;
32096;SDS011;18610;49.916;8.284;2023-02-15T05:15:51;70.07;;;31.63;;
32096;SDS011;18610;49.916;8.284;2023-02-15T05:18:19;69.85;;;32.42;;
32096;SDS011;18610;49.916;8.284;2023-02-15T05:20:47;62.08;;;28.60;;
32096;SDS011;18610;49.916;8.284;2023-02-15T05:23:14;75.43;;;32.13;;
32096;SDS011;18610;49.916;8.284;2023-02-15T05:25:45;66.45;;;29.50;;
32096;SDS011;18610;49.916;8.284;2023-02-15T05:28:31;60.95;;;29.02;;
32096;SDS011;18610;49.916;8.284;2023-02-15T05:31:00;76.57;;;30.92;;
32096;SDS011;18610;49.916;8.284;2023-02-15T05:33:29;80.53;;;29.00;;
32096;SDS011;18610;49.916;8.284;2023-02-15T05:35:56;57.97;;;26.70;;
32096;SDS011;18610;49.916;8.284;2023-02-15T05:38:23;55.58;;;26.80;;
32096;SDS011;18610;49.916;8.284;2023-02-15T05:40:50;62.58;;;27.23;;
32096;SDS011;18610;49.916;8.284;2023-02-15T05:43:17;54.05;;;26.25;;
32096;SDS011;18610;49.916;8.284;2023-02-15T05:45:46;63.60;;;28.05;;
32096;SDS011;18610;49.916;8.284;2023-02-15T05:48:13;57.67;;;27.27;;
32096;SDS011;18610;49.916;8.284;2023-02-15T05:50:40;55.88;;;27.33;;
32096;SDS011;18610;49.916;8.284;2023-02-15T05:53:06;60.70;;;27.50;;
32096;SDS011;18610;49.916;8.284;2023-02-15T05:55:33;57.70;;;26.15;;
32096;SDS011;18610;49.916;8.284;2023-02-15T05:58:00;60.55;;;26.83;;
32096;SDS011;18610;49.916;8.284;2023-02-15T06:00:26;58.90;;;26.65;;
32096;SDS011;18610;49.916;8.284;2023-02-15T06:02:54;52.08;;;24.90;;
32096;SDS011;18610;49.916;8.284;2023-02-15T06:05:21;54.50;;;26.40;;
32096;SDS011;18610;49.916;8.284;2023-02-15T06:07:48;55.88;;;25.58;;
32096;SDS011;18610;49.916;8.284;2023-02-15T06:10:14;53.15;;;26.13;;
32096;SDS011;18610;49.916;8.284;2023-02-15T06:12:41;61.65;;;25.42;;
32096;SDS011;18610;49.916;8.284;2023-02-15T06:15:10;56.38;;;24.52;;
32096;SDS011;18610;49.916;8.284;2023-02-15T06:17:36;56.40;;;25.85;;
32096;SDS011;18610;49.916;8.284;2023-02-15T06:20:05;65.05;;;28.63;;
32096;SDS011;18610;49.916;8.284;2023-02-15T06:22:33;64.05;;;27.98;;
32096;SDS011;18610;49.916;8.284;2023-02-15T06:25:01;57.28;;;24.55;;
32096;SDS011;18610;49.916;8.284;2023-02-15T06:27:28;53.42;;;23.75;;
32096;SDS011;18610;49.916;8.284;2023-02-15T06:29:55;56.33;;;25.13;;
32096;SDS011;18610;49.916;8.284;2023-02-15T06:32:22;49.88;;;23.27;;
32096;SDS011;18610;49.916;8.284;2023-02-15T06:34:48;54.22;;;24.40;;
32096;SDS011;18610;49.916;8.284;2023-02-15T06:37:16;53.47;;;23.63;;
32096;SDS011;18610;49.916;8.284;2023-02-15T06:39:43;48.40;;;22.92;;
32096;SDS011;18610;49.916;8.284;2023-02-15T06:42:10;51.97;;;23.33;;
32096;SDS011;18610;49.916;8.284;2023-02-15T06:44:36;49.90;;;24.90;;
32096;SDS011;18610;49.916;8.284;2023-02-15T06:47:03;56.80;;;24.83;;
32096;SDS011;18610;49.916;8.284;2023-02-15T06:49:30;55.17;;;24.70;;
32096;SDS011;18610;49.916;8.284;2023-02-15T06:51:56;53.42;;;23.67;;
32096;SDS011;18610;49.916;8.284;2023-02-15T06:54:24;47.38;;;21.95;;
32096;SDS011;18610;49.916;8.284;2023-02-15T06:56:51;45.05;;;22.50;;
32096;SDS011;18610;49.916;8.284;2023-02-15T06:59:18;58.75;;;24.35;;
32096;SDS011;18610;49.916;8.284;2023-02-15T07:01:45;54.28;;;23.35;;
32096;SDS011;18610;49.916;8.284;2023-02-15T07:04:14;52.33;;;22.35;;
32096;SDS011;18610;49.916;8.284;2023-02-15T07:06:41;49.63;;;22.95;;
32096;SDS011;18610;49.916;8.284;2023-02-15T07:09:08;51.75;;;23.45;;
32096;SDS011;18610;49.916;8.284;2023-02-15T07:11:36;55.50;;;25.38;;
32096;SDS011;18610;49.916;8.284;2023-02-15T07:14:20;56.55;;;25.55;;
32096;SDS011;18610;49.916;8.284;2023-02-15T07:16:47;51.72;;;23.52;;
32096;SDS011;18610;49.916;8.284;2023-02-15T07:19:13;55.30;;;24.83;;
32096;SDS011;18610;49.916;8.284;2023-02-15T07:21:41;56.67;;;24.52;;
32096;SDS011;18610;49.916;8.284;2023-02-15T07:24:08;66.53;;;26.90;;
32096;SDS011;18610;49.916;8.284;2023-02-15T07:26:36;53.50;;;23.95;;
32096;SDS011;18610;49.916;8.284;2023-02-15T07:29:03;62.00;;;24.67;;
32096;SDS011;18610;49.916;8.284;2023-02-15T07:31:30;63.90;;;25.95;;
32096;SDS011;18610;49.916;8.284;2023-02-15T07:33:57;61.88;;;25.83;;
32096;SDS011;18610;49.916;8.284;2023-02-15T07:36:23;51.92;;;22.40;;
32096;SDS011;18610;49.916;8.284;2023-02-15T07:38:50;53.40;;;22.58;;
32096;SDS011;18610;49.916;8.284;2023-02-15T07:41:17;50.50;;;22.52;;
32096;SDS011;18610;49.916;8.284;2023-02-15T07:43:45;55.50;;;22.35;;
32096;SDS011;18610;49.916;8.284;2023-02-15T07:46:12;52.97;;;23.92;;
32096;SDS011;18610;49.916;8.284;2023-02-15T07:48:41;51.55;;;22.98;;
32096;SDS011;18610;49.916;8.284;2023-02-15T07:51:09;51.53;;;23.08;;
32096;SDS011;18610;49.916;8.284;2023-02-15T07:53:38;51.60;;;21.27;;
32096;SDS011;18610;49.916;8.284;2023-02-15T07:56:06;55.55;;;23.42;;
32096;SDS011;18610;49.916;8.284;2023-02-15T07:58:34;46.88;;;21.67;;
32096;SDS011;18610;49.916;8.284;2023-02-15T08:01:23;49.30;;;21.77;;
32096;SDS011;18610;49.916;8.284;2023-02-15T08:03:51;50.00;;;21.70;;
32096;SDS011;18610;49.916;8.284;2023-02-15T08:06:18;44.83;;;21.65;;
32096;SDS011;18610;49.916;8.284;2023-02-15T08:08:45;50.42;;;22.73;;
32096;SDS011;18610;49.916;8.284;2023-02-15T08:11:16;53.38;;;22.20;;
32096;SDS011;18610;49.916;8.284;2023-02-15T08:14:02;51.38;;;22.60;;
32096;SDS011;18610;49.916;8.284;2023-02-15T08:16:32;45.97;;;21.45;;
32096;SDS011;18610;49.916;8.284;2023-02-15T08:19:01;51.00;;;22.15;;
32096;SDS011;18610;49.916;8.284;2023-02-15T08:21:30;51.13;;;22.85;;
32096;SDS011;18610;49.916;8.284;2023-02-15T08:23:58;49.42;;;22.30;;
32096;SDS011;18610;49.916;8.284;2023-02-15T08:26:26;56.15;;;22.10;;
32096;SDS011;18610;49.916;8.284;2023-02-15T08:28:54;43.85;;;20.10;;
32096;SDS011;18610;49.916;8.284;2023-02-15T08:31:22;53.92;;;24.15;;
32096;SDS011;18610;49.916;8.284;2023-02-15T08:33:51;47.58;;;21.83;;
32096;SDS011;18610;49.916;8.284;2023-02-15T08:36:20;48.95;;;22.38;;
32096;SDS011;18610;49.916;8.284;2023-02-15T08:38:47;51.13;;;22.33;;
32096;SDS011;18610;49.916;8.284;2023-02-15T08:41:15;49.60;;;21.67;;
32096;SDS011;18610;49.916;8.284;2023-02-15T08:43:44;57.30;;;24.58;;
32096;SDS011;18610;49.916;8.284;2023-02-15T08:46:11;54.35;;;23.80;;
32096;SDS011;18610;49.916;8.284;2023-02-15T08:48:40;54.13;;;23.63;;
32096;SDS011;18610;49.916;8.284;2023-02-15T08:51:10;55.08;;;23.77;;
32096;SDS011;18610;49.916;8.284;2023-02-15T08:53:38;62.03;;;26.45;;
32096;SDS011;18610;49.916;8.284;2023-02-15T08:56:06;62.45;;;25.42;;
32096;SDS011;18610;49.916;8.284;2023-02-15T08:58:33;61.92;;;26.92;;
32096;SDS011;18610;49.916;8.284;2023-02-15T09:01:00;57.67;;;25.67;;
32096;SDS011;18610;49.916;8.284;2023-02-15T09:03:33;62.88;;;26.17;;
32096;SDS011;18610;49.916;8.284;2023-02-15T09:06:00;54.80;;;23.42;;
32096;SDS011;18610;49.916;8.284;2023-02-15T09:08:28;66.43;;;27.65;;
32096;SDS011;18610;49.916;8.284;2023-02-15T09:11:03;65.28;;;27.85;;
32096;SDS011;18610;49.916;8.284;2023-02-15T09:13:31;62.05;;;27.13;;
32096;SDS011;18610;49.916;8.284;2023-02-15T09:15:59;57.38;;;25.83;;
32096;SDS011;18610;49.916;8.284;2023-02-15T09:18:26;66.95;;;28.63;;
32096;SDS011;18610;49.916;8.284;2023-02-15T09:20:53;59.30;;;26.67;;
32096;SDS011;18610;49.916;8.284;2023-02-15T09:23:20;57.67;;;24.60;;
32096;SDS011;18610;49.916;8.284;2023-02-15T09:25:48;59.92;;;25.90;;
32096;SDS011;18610;49.916;8.284;2023-02-15T09:28:14;52.33;;;23.33;;
32096;SDS011;18610;49.916;8.284;2023-02-15T09:30:41;53.60;;;24.25;;
32096;SDS011;18610;49.916;8.284;2023-02-15T09:33:08;49.53;;;24.48;;
32096;SDS011;18610;49.916;8.284;2023-02-15T09:35:34;55.15;;;25.60;;
32096;SDS011;18610;49.916;8.284;2023-02-15T09:38:01;55.08;;;24.92;;
32096;SDS011;18610;49.916;8.284;2023-02-15T09:40:28;51.03;;;22.73;;
32096;SDS011;18610;49.916;8.284;2023-02-15T09:43:09;53.60;;;23.08;;
32096;SDS011;18610;49.916;8.284;2023-02-15T09:45:52;47.90;;;22.50;;
32096;SDS011;18610;49.916;8.284;2023-02-15T09:48:40;46.80;;;23.40;;
32096;SDS011;18610;49.916;8.284;2023-02-15T09:51:17;50.38;;;22.42;;
32096;SDS011;18610;49.916;8.284;2023-02-15T09:54:04;55.20;;;24.30;;
32096;SDS011;18610;49.916;8.284;2023-02-15T09:56:42;53.25;;;23.60;;
32096;SDS011;18610;49.916;8.284;2023-02-15T09:59:17;56.85;;;24.95;;
32096;SDS011;18610;49.916;8.284;2023-02-15T10:01:52;54.03;;;24.35;;
32096;SDS011;18610;49.916;8.284;2023-02-15T10:04:32;58.40;;;26.02;;
32096;SDS011;18610;49.916;8.284;2023-02-15T10:07:17;54.40;;;24.95;;
32096;SDS011;18610;49.916;8.284;2023-02-15T10:10:02;51.05;;;24.10;;
32096;SDS011;18610;49.916;8.284;2023-02-15T10:12:46;49.70;;;23.70;;
32096;SDS011;18610;49.916;8.284;2023-02-15T10:15:26;53.08;;;24.33;;
32096;SDS011;18610;49.916;8.284;2023-02-15T10:18:06;66.05;;;28.45;;
32096;SDS011;18610;49.916;8.284;2023-02-15T10:20:46;56.78;;;25.02;;
32096;SDS011;18610;49.916;8.284;2023-02-15T10:23:22;59.10;;;27.70;;
32096;SDS011;18610;49.916;8.284;2023-02-15T10:26:07;74.82;;;30.42;;
32096;SDS011;18610;49.916;8.284;2023-02-15T10:28:42;64.38;;;29.33;;
32096;SDS011;18610;49.916;8.284;2023-02-15T10:31:23;80.22;;;32.20;;
32096;SDS011;18610;49.916;8.284;2023-02-15T10:33:58;67.88;;;30.45;;
32096;SDS011;18610;49.916;8.284;2023-02-15T10:36:42;73.43;;;31.00;;
32096;SDS011;18610;49.916;8.284;2023-02-15T10:39:24;70.88;;;30.75;;
32096;SDS011;18610;49.916;8.284;2023-02-15T10:41:57;64.72;;;30.02;;
32096;SDS011;18610;49.916;8.284;2023-02-15T10:44:38;63.08;;;29.38;;
32096;SDS011;18610;49.916;8.284;2023-02-15T10:47:24;59.63;;;28.00;;
32096;SDS011;18610;49.916;8.284;2023-02-15T10:50:10;63.65;;;29.33;;
32096;SDS011;18610;49.916;8.284;2023-02-15T10:52:46;65.65;;;27.52;;
32096;SDS011;18610;49.916;8.284;2023-02-15T10:55:24;67.18;;;29.48;;
32096;SDS011;18610;49.916;8.284;2023-02-15T10:58:04;65.60;;;28.33;;
32096;SDS011;18610;49.916;8.284;2023-02-15T11:00:37;65.28;;;28.00;;
32096;SDS011;18610;49.916;8.284;2023-02-15T11:03:21;68.57;;;27.90;;
32096;SDS011;18610;49.916;8.284;2023-02-15T11:06:03;68.03;;;27.60;;
32096;SDS011;18610;49.916;8.284;2023-02-15T11:08:35;64.78;;;28.83;;
32096;SDS011;18610;49.916;8.284;2023-02-15T11:11:06;53.00;;;26.33;;
32096;SDS011;18610;49.916;8.284;2023-02-15T11:13:36;52.05;;;25.17;;
32096;SDS011;18610;49.916;8.284;2023-02-15T11:16:06;51.03;;;22.92;;
32096;SDS011;18610;49.916;8.284;2023-02-15T11:18:41;52.67;;;25.17;;
32096;SDS011;18610;49.916;8.284;2023-02-15T11:21:13;52.83;;;24.20;;
32096;SDS011;18610;49.916;8.284;2023-02-15T11:23:46;52.10;;;23.13;;
32096;SDS011;18610;49.916;8.284;2023-02-15T11:26:14;52.30;;;25.33;;
32096;SDS011;18610;49.916;8.284;2023-02-15T11:28:46;49.58;;;21.48;;
32096;SDS011;18610;49.916;8.284;2023-02-15T11:31:19;55.20;;;25.23;;
32096;SDS011;18610;49.916;8.284;2023-02-15T11:33:50;49.92;;;25.77;;
32096;SDS011;18610;49.916;8.284;2023-02-15T11:36:20;50.85;;;24.92;;
32096;SDS011;18610;49.916;8.284;2023-02-15T11:38:51;45.72;;;22.52;;
32096;SDS011;18610;49.916;8.284;2023-02-15T11:43:53;47.55;;;22.70;;
32096;SDS011;18610;49.916;8.284;2023-02-15T11:46:24;51.70;;;24.42;;
32096;SDS011;18610;49.916;8.284;2023-02-15T11:48:52;50.08;;;23.80;;
32096;SDS011;18610;49.916;8.284;2023-02-15T11:51:20;55.00;;;25.25;;
32096;SDS011;18610;49.916;8.284;2023-02-15T11:53:49;50.53;;;24.40;;
32096;SDS011;18610;49.916;8.284;2023-02-15T11:56:17;46.25;;;24.13;;
32096;SDS011;18610;49.916;8.284;2023-02-15T11:58:47;42.95;;;22.77;;
32096;SDS011;18610;49.916;8.284;2023-02-15T12:01:20;47.05;;;23.88;;
32096;SDS011;18610;49.916;8.284;2023-02-15T12:03:51;46.47;;;22.83;;
32096;SDS011;18610;49.916;8.284;2023-02-15T12:06:23;48.88;;;23.45;;
32096;SDS011;18610;49.916;8.284;2023-02-15T12:08:54;50.58;;;23.13;;
32096;SDS011;18610;49.916;8.284;2023-02-15T12:11:26;47.75;;;22.77;;
32096;SDS011;18610;49.916;8.284;2023-02-15T12:13:58;44.95;;;22.42;;
32096;SDS011;18610;49.916;8.284;2023-02-15T12:16:26;50.83;;;24.15;;
32096;SDS011;18610;49.916;8.284;2023-02-15T12:18:57;47.15;;;22.77;;
32096;SDS011;18610;49.916;8.284;2023-02-15T12:21:27;45.45;;;21.92;;
32096;SDS011;18610;49.916;8.284;2023-02-15T12:23:57;49.88;;;24.05;;
32096;SDS011;18610;49.916;8.284;2023-02-15T12:28:57;46.30;;;22.17;;
32096;SDS011;18610;49.916;8.284;2023-02-15T12:31:28;43.05;;;22.33;;
32096;SDS011;18610;49.916;8.284;2023-02-15T12:34:00;45.88;;;22.30;;
32096;SDS011;18610;49.916;8.284;2023-02-15T12:36:40;44.97;;;23.52;;
32096;SDS011;18610;49.916;8.284;2023-02-15T12:39:21;47.75;;;23.05;;
32096;SDS011;18610;49.916;8.284;2023-02-15T12:41:57;45.78;;;25.05;;
32096;SDS011;18610;49.916;8.284;2023-02-15T12:44:28;47.13;;;23.23;;
32096;SDS011;18610;49.916;8.284;2023-02-15T12:46:57;48.83;;;24.73;;
32096;SDS011;18610;49.916;8.284;2023-02-15T12:49:27;46.10;;;23.58;;
32096;SDS011;18610;49.916;8.284;2023-02-15T12:51:54;47.97;;;24.33;;
32096;SDS011;18610;49.916;8.284;2023-02-15T12:54:26;47.72;;;24.17;;
32096;SDS011;18610;49.916;8.284;2023-02-15T12:56:56;42.63;;;23.70;;
32096;SDS011;18610;49.916;8.284;2023-02-15T12:59:24;43.78;;;23.25;;
32096;SDS011;18610;49.916;8.284;2023-02-15T13:01:51;44.15;;;23.23;;
32096;SDS011;18610;49.916;8.284;2023-02-15T13:04:21;46.78;;;24.23;;
32096;SDS011;18610;49.916;8.284;2023-02-15T13:06:53;48.25;;;24.80;;
32096;SDS011;18610;49.916;8.284;2023-02-15T13:09:25;50.28;;;26.20;;
32096;SDS011;18610;49.916;8.284;2023-02-15T13:12:08;53.55;;;25.52;;
32096;SDS011;18610;49.916;8.284;2023-02-15T13:14:43;48.85;;;26.40;;
32096;SDS011;18610;49.916;8.284;2023-02-15T13:17:11;51.80;;;25.90;;
32096;SDS011;18610;49.916;8.284;2023-02-15T13:19:40;57.10;;;28.42;;
32096;SDS011;18610;49.916;8.284;2023-02-15T13:22:14;55.60;;;27.30;;
32096;SDS011;18610;49.916;8.284;2023-02-15T13:24:43;51.20;;;26.13;;
32096;SDS011;18610;49.916;8.284;2023-02-15T13:27:13;56.10;;;28.70;;
32096;SDS011;18610;49.916;8.284;2023-02-15T13:29:43;63.40;;;32.55;;
32096;SDS011;18610;49.916;8.284;2023-02-15T13:32:15;65.03;;;33.13;;
32096;SDS011;18610;49.916;8.284;2023-02-15T13:34:51;64.65;;;31.92;;
32096;SDS011;18610;49.916;8.284;2023-02-15T13:37:23;68.18;;;34.10;;
32096;SDS011;18610;49.916;8.284;2023-02-15T13:40:09;68.28;;;35.22;;
32096;SDS011;18610;49.916;8.284;2023-02-15T13:42:40;62.55;;;32.63;;
32096;SDS011;18610;49.916;8.284;2023-02-15T13:45:15;68.50;;;31.90;;
32096;SDS011;18610;49.916;8.284;2023-02-15T13:47:59;53.95;;;29.15;;
32096;SDS011;18610;49.916;8.284;2023-02-15T13:50:38;63.30;;;31.85;;
32096;SDS011;18610;49.916;8.284;2023-02-15T13:53:20;62.60;;;30.42;;
32096;SDS011;18610;49.916;8.284;2023-02-15T13:56:08;59.17;;;29.55;;
32096;SDS011;18610;49.916;8.284;2023-02-15T13:58:58;52.28;;;28.65;;
32096;SDS011;18610;49.916;8.284;2023-02-15T14:01:38;63.40;;;30.88;;
32096;SDS011;18610;49.916;8.284;2023-02-15T14:04:26;63.40;;;32.70;;
32096;SDS011;18610;49.916;8.284;2023-02-15T14:07:17;62.88;;;33.25;;
32096;SDS011;18610;49.916;8.284;2023-02-15T14:10:05;70.60;;;37.20;;
32096;SDS011;18610;49.916;8.284;2023-02-15T14:12:51;69.20;;;34.63;;
32096;SDS011;18610;49.916;8.284;2023-02-15T14:15:32;65.95;;;34.50;;
32096;SDS011;18610;49.916;8.284;2023-02-15T14:18:07;73.55;;;37.35;;
32096;SDS011;18610;49.916;8.284;2023-02-15T14:20:43;79.70;;;39.75;;
32096;SDS011;18610;49.916;8.284;2023-02-15T14:23:25;78.82;;;40.60;;
32096;SDS011;18610;49.916;8.284;2023-02-15T14:26:03;71.97;;;37.30;;
32096;SDS011;18610;49.916;8.284;2023-02-15T14:28:36;84.32;;;43.20;;
32096;SDS011;18610;49.916;8.284;2023-02-15T14:31:10;84.10;;;41.60;;
32096;SDS011;18610;49.916;8.284;2023-02-15T14:33:40;82.10;;;41.30;;
32096;SDS011;18610;49.916;8.284;2023-02-15T14:36:13;75.90;;;40.45;;
32096;SDS011;18610;49.916;8.284;2023-02-15T14:38:47;79.40;;;40.97;;
32096;SDS011;18610;49.916;8.284;2023-02-15T14:41:23;69.95;;;37.22;;
32096;SDS011;18610;49.916;8.284;2023-02-15T14:43:56;70.22;;;37.50;;
32096;SDS011;18610;49.916;8.284;2023-02-15T14:46:34;82.10;;;39.28;;
32096;SDS011;18610;49.916;8.284;2023-02-15T14:49:05;78.38;;;38.33;;
32096;SDS011;18610;49.916;8.284;2023-02-15T14:51:59;75.60;;;37.95;;
32096;SDS011;18610;49.916;8.284;2023-02-15T14:57:24;69.63;;;35.92;;
32096;SDS011;18610;49.916;8.284;2023-02-15T14:59:57;74.10;;;35.97;;